To NAV CANADA Home Page Login to a new session Search on AWWS site Feedback and Comments Disclaimer Vers la page française équivalente Tips FAQ What's new on the site To the Forecasts and Observations / NOTAM section To "File a Flight Plan" website Publications and other links Update of the User's profile FIC Telephone Numbers My Weather Data Folder Route Weather Data Regional Weather Data Local Weather Data To the Forecasts and Observations / NOTAM section
Request Generated 02/28/2015 at 06:49:39 UTC . Weather information available at that time is displayed.

METAR/TAF

YARMOUTH/NS    

METAR CYQI 280600Z 32009KT 15SM BKN030 M05/M14 A3044 RMK SC7 SLP312=
METAR CYQI 280500Z 31008KT 15SM BKN030 M06/M14 A3043 RMK SC6 SLP307=
METAR CYQI 280400Z 30007KT 15SM BKN030 M06/M13 A3042 RMK SC6 SLP303=

TAF CYQI 280538Z 2806/2818 30007KT P6SM FEW030 TEMPO 2806/2809 P6SM
-SHSN BKN030
FM280900 33008KT P6SM SKC
BECMG 2815/2817 27006KT
RMK NXT FCST BY 281200Z=
Your time UTC time
Weather data provided by Environment Canada and NAV CANADA